sensor_id;sensor_type;location;lat;lon;timestamp;temperature;humidity
28654;DHT22;24320;56.980;24.336;2022-09-03T00:00:57;7.70;99.90
28654;DHT22;24320;56.980;24.336;2022-09-03T00:03:33;7.80;99.90
28654;DHT22;24320;56.980;24.336;2022-09-03T00:06:20;7.80;99.90
28654;DHT22;24320;56.980;24.336;2022-09-03T00:09:11;7.90;99.90
28654;DHT22;24320;56.980;24.336;2022-09-03T00:11:56;8.00;99.90
28654;DHT22;24320;56.980;24.336;2022-09-03T00:14:33;8.10;99.90
28654;DHT22;24320;56.980;24.336;2022-09-03T00:17:06;8.10;99.90
28654;DHT22;24320;56.980;24.336;2022-09-03T00:22:46;8.20;99.90
28654;DHT22;24320;56.980;24.336;2022-09-03T00:25:20;8.20;99.90
28654;DHT22;24320;56.980;24.336;2022-09-03T00:27:53;8.30;99.90
28654;DHT22;24320;56.980;24.336;2022-09-03T00:30:21;8.30;99.90
28654;DHT22;24320;56.980;24.336;2022-09-03T00:35:32;8.30;99.90
28654;DHT22;24320;56.980;24.336;2022-09-03T00:38:01;8.30;99.90
28654;DHT22;24320;56.980;24.336;2022-09-03T00:40:40;8.30;99.90
28654;DHT22;24320;56.980;24.336;2022-09-03T00:46:10;8.40;99.90
28654;DHT22;24320;56.980;24.336;2022-09-03T00:52:11;8.40;99.90
28654;DHT22;24320;56.980;24.336;2022-09-03T01:00:19;8.40;99.90
28654;DHT22;24320;56.980;24.336;2022-09-03T01:14:38;8.40;99.90
28654;DHT22;24320;56.980;24.336;2022-09-03T01:19:51;8.40;99.90
28654;DHT22;24320;56.980;24.336;2022-09-03T01:25:36;8.30;99.90
28654;DHT22;24320;56.980;24.336;2022-09-03T01:33:58;8.10;99.90
28654;DHT22;24320;56.980;24.336;2022-09-03T01:38:59;8.00;99.90
28654;DHT22;24320;56.980;24.336;2022-09-03T01:47:45;7.80;99.90
28654;DHT22;24320;56.980;24.336;2022-09-03T01:58:43;7.30;99.90
28654;DHT22;24320;56.980;24.336;2022-09-03T02:01:19;7.20;99.90
28654;DHT22;24320;56.980;24.336;2022-09-03T02:03:48;7.10;99.90
28654;DHT22;24320;56.980;24.336;2022-09-03T02:06:16;7.00;99.90
28654;DHT22;24320;56.980;24.336;2022-09-03T02:08:46;6.90;99.90
28654;DHT22;24320;56.980;24.336;2022-09-03T02:11:13;6.80;99.90
28654;DHT22;24320;56.980;24.336;2022-09-03T02:13:44;6.70;99.90
28654;DHT22;24320;56.980;24.336;2022-09-03T02:16:14;6.70;99.90
28654;DHT22;24320;56.980;24.336;2022-09-03T02:18:45;6.60;99.90
28654;DHT22;24320;56.980;24.336;2022-09-03T02:21:18;6.50;99.90
28654;DHT22;24320;56.980;24.336;2022-09-03T02:23:47;6.40;99.90
28654;DHT22;24320;56.980;24.336;2022-09-03T02:26:18;6.30;99.90
28654;DHT22;24320;56.980;24.336;2022-09-03T02:28:46;6.20;99.90
28654;DHT22;24320;56.980;24.336;2022-09-03T02:31:13;6.10;99.90
28654;DHT22;24320;56.980;24.336;2022-09-03T02:33:43;6.10;99.90
28654;DHT22;24320;56.980;24.336;2022-09-03T02:36:13;6.10;99.90
28654;DHT22;24320;56.980;24.336;2022-09-03T02:38:42;6.00;99.90
28654;DHT22;24320;56.980;24.336;2022-09-03T02:41:10;5.90;99.90
28654;DHT22;24320;56.980;24.336;2022-09-03T02:43:50;5.80;99.90
28654;DHT22;24320;56.980;24.336;2022-09-03T02:46:23;5.80;99.90
28654;DHT22;24320;56.980;24.336;2022-09-03T02:48:53;5.70;99.90
28654;DHT22;24320;56.980;24.336;2022-09-03T02:51:20;5.70;99.90
28654;DHT22;24320;56.980;24.336;2022-09-03T02:53:47;5.60;99.90
28654;DHT22;24320;56.980;24.336;2022-09-03T02:56:16;5.60;99.90
28654;DHT22;24320;56.980;24.336;2022-09-03T02:58:43;5.60;99.90
28654;DHT22;24320;56.980;24.336;2022-09-03T03:01:10;5.60;99.90
28654;DHT22;24320;56.980;24.336;2022-09-03T03:03:49;5.60;99.90
28654;DHT22;24320;56.980;24.336;2022-09-03T03:06:17;5.70;99.90
28654;DHT22;24320;56.980;24.336;2022-09-03T03:08:47;5.70;99.90
28654;DHT22;24320;56.980;24.336;2022-09-03T03:11:16;5.70;99.90
28654;DHT22;24320;56.980;24.336;2022-09-03T03:13:44;5.60;99.90
28654;DHT22;24320;56.980;24.336;2022-09-03T03:16:13;5.60;99.90
28654;DHT22;24320;56.980;24.336;2022-09-03T03:18:41;5.50;99.90
28654;DHT22;24320;56.980;24.336;2022-09-03T03:21:16;5.50;99.90
28654;DHT22;24320;56.980;24.336;2022-09-03T03:23:44;5.50;99.90
28654;DHT22;24320;56.980;24.336;2022-09-03T03:26:14;5.40;99.90
28654;DHT22;24320;56.980;24.336;2022-09-03T03:28:41;5.40;99.90
28654;DHT22;24320;56.980;24.336;2022-09-03T03:31:19;5.40;99.90
28654;DHT22;24320;56.980;24.336;2022-09-03T03:33:55;5.30;99.90
28654;DHT22;24320;56.980;24.336;2022-09-03T03:36:24;5.20;99.90
28654;DHT22;24320;56.980;24.336;2022-09-03T03:38:56;5.20;99.90
28654;DHT22;24320;56.980;24.336;2022-09-03T03:41:34;5.10;99.90
28654;DHT22;24320;56.980;24.336;2022-09-03T03:44:04;5.20;99.90
28654;DHT22;24320;56.980;24.336;2022-09-03T03:46:37;5.20;99.90
28654;DHT22;24320;56.980;24.336;2022-09-03T03:49:05;5.20;99.90
28654;DHT22;24320;56.980;24.336;2022-09-03T03:51:34;5.20;99.90
28654;DHT22;24320;56.980;24.336;2022-09-03T03:54:02;5.30;99.90
28654;DHT22;24320;56.980;24.336;2022-09-03T03:56:32;5.30;99.90
28654;DHT22;24320;56.980;24.336;2022-09-03T03:58:59;5.40;99.90
28654;DHT22;24320;56.980;24.336;2022-09-03T04:01:27;5.50;99.90
28654;DHT22;24320;56.980;24.336;2022-09-03T04:03:55;5.60;99.90
28654;DHT22;24320;56.980;24.336;2022-09-03T04:06:22;5.70;99.90
28654;DHT22;24320;56.980;24.336;2022-09-03T04:08:49;5.70;99.90
28654;DHT22;24320;56.980;24.336;2022-09-03T04:11:21;5.80;99.90
28654;DHT22;24320;56.980;24.336;2022-09-03T04:13:50;5.90;99.90
28654;DHT22;24320;56.980;24.336;2022-09-03T04:16:22;6.00;99.90
28654;DHT22;24320;56.980;24.336;2022-09-03T04:18:52;6.10;99.90
28654;DHT22;24320;56.980;24.336;2022-09-03T04:21:24;6.20;99.90
28654;DHT22;24320;56.980;24.336;2022-09-03T04:23:54;6.30;99.90
28654;DHT22;24320;56.980;24.336;2022-09-03T04:26:25;6.40;99.90
28654;DHT22;24320;56.980;24.336;2022-09-03T04:28:52;6.50;99.90
28654;DHT22;24320;56.980;24.336;2022-09-03T04:31:19;6.60;99.90
28654;DHT22;24320;56.980;24.336;2022-09-03T04:33:47;6.70;99.90
28654;DHT22;24320;56.980;24.336;2022-09-03T04:36:17;6.80;99.90
28654;DHT22;24320;56.980;24.336;2022-09-03T04:38:47;6.90;99.90
28654;DHT22;24320;56.980;24.336;2022-09-03T04:41:20;7.00;99.90
28654;DHT22;24320;56.980;24.336;2022-09-03T04:43:47;7.10;99.90
28654;DHT22;24320;56.980;24.336;2022-09-03T04:46:18;7.10;99.90
28654;DHT22;24320;56.980;24.336;2022-09-03T04:48:48;7.20;99.90
28654;DHT22;24320;56.980;24.336;2022-09-03T04:51:21;7.30;99.90
28654;DHT22;24320;56.980;24.336;2022-09-03T04:53:53;7.40;99.90
28654;DHT22;24320;56.980;24.336;2022-09-03T04:56:28;7.60;99.90
28654;DHT22;24320;56.980;24.336;2022-09-03T04:59:00;7.80;99.90
28654;DHT22;24320;56.980;24.336;2022-09-03T05:01:31;8.00;99.90
28654;DHT22;24320;56.980;24.336;2022-09-03T05:03:59;8.30;99.90
28654;DHT22;24320;56.980;24.336;2022-09-03T05:06:27;8.50;99.90
28654;DHT22;24320;56.980;24.336;2022-09-03T05:08:55;8.80;99.90
28654;DHT22;24320;56.980;24.336;2022-09-03T05:11:23;9.00;99.90
28654;DHT22;24320;56.980;24.336;2022-09-03T05:13:52;9.40;99.90
28654;DHT22;24320;56.980;24.336;2022-09-03T05:16:20;10.10;99.90
28654;DHT22;24320;56.980;24.336;2022-09-03T05:18:51;11.00;99.90
28654;DHT22;24320;56.980;24.336;2022-09-03T05:21:20;12.00;99.90
28654;DHT22;24320;56.980;24.336;2022-09-03T05:23:49;12.80;99.90
28654;DHT22;24320;56.980;24.336;2022-09-03T05:26:24;13.50;99.90
28654;DHT22;24320;56.980;24.336;2022-09-03T05:28:54;14.20;99.90
28654;DHT22;24320;56.980;24.336;2022-09-03T05:31:23;15.00;99.90
28654;DHT22;24320;56.980;24.336;2022-09-03T05:33:54;15.70;99.90
28654;DHT22;24320;56.980;24.336;2022-09-03T05:36:27;16.30;99.90
28654;DHT22;24320;56.980;24.336;2022-09-03T05:38:54;17.00;99.90
28654;DHT22;24320;56.980;24.336;2022-09-03T05:41:24;17.50;99.90
28654;DHT22;24320;56.980;24.336;2022-09-03T05:43:52;18.00;99.90
28654;DHT22;24320;56.980;24.336;2022-09-03T05:46:30;18.40;99.90
28654;DHT22;24320;56.980;24.336;2022-09-03T05:49:03;18.70;99.90
28654;DHT22;24320;56.980;24.336;2022-09-03T05:51:31;19.10;99.90
28654;DHT22;24320;56.980;24.336;2022-09-03T05:53:58;19.40;99.90
28654;DHT22;24320;56.980;24.336;2022-09-03T05:56:28;19.60;99.90
28654;DHT22;24320;56.980;24.336;2022-09-03T05:58:58;19.80;99.90
28654;DHT22;24320;56.980;24.336;2022-09-03T06:01:30;20.00;99.90
28654;DHT22;24320;56.980;24.336;2022-09-03T06:06:27;20.00;99.90
28654;DHT22;24320;56.980;24.336;2022-09-03T06:09:17;19.90;99.90
28654;DHT22;24320;56.980;24.336;2022-09-03T06:11:44;19.70;99.90
28654;DHT22;24320;56.980;24.336;2022-09-03T06:14:13;19.30;99.90
28654;DHT22;24320;56.980;24.336;2022-09-03T06:16:43;18.70;99.90
28654;DHT22;24320;56.980;24.336;2022-09-03T06:19:10;18.10;99.90
28654;DHT22;24320;56.980;24.336;2022-09-03T06:21:40;17.60;99.90
28654;DHT22;24320;56.980;24.336;2022-09-03T06:24:13;17.40;99.90
28654;DHT22;24320;56.980;24.336;2022-09-03T06:26:40;17.20;99.90
28654;DHT22;24320;56.980;24.336;2022-09-03T06:29:08;16.90;99.90
28654;DHT22;24320;56.980;24.336;2022-09-03T06:31:36;16.60;99.90
28654;DHT22;24320;56.980;24.336;2022-09-03T06:34:03;16.20;99.90
28654;DHT22;24320;56.980;24.336;2022-09-03T06:36:31;16.00;99.90
28654;DHT22;24320;56.980;24.336;2022-09-03T06:38:58;15.70;99.90
28654;DHT22;24320;56.980;24.336;2022-09-03T06:41:28;15.60;99.90
28654;DHT22;24320;56.980;24.336;2022-09-03T06:44:00;15.60;99.90
28654;DHT22;24320;56.980;24.336;2022-09-03T06:46:34;15.80;99.90
28654;DHT22;24320;56.980;24.336;2022-09-03T06:49:01;16.20;99.90
28654;DHT22;24320;56.980;24.336;2022-09-03T06:51:30;17.00;99.90
28654;DHT22;24320;56.980;24.336;2022-09-03T06:54:01;17.80;99.90
28654;DHT22;24320;56.980;24.336;2022-09-03T06:56:28;18.60;99.90
28654;DHT22;24320;56.980;24.336;2022-09-03T06:59:05;19.20;99.90
28654;DHT22;24320;56.980;24.336;2022-09-03T07:04:03;20.00;99.90
28654;DHT22;24320;56.980;24.336;2022-09-03T07:06:32;20.10;99.90
28654;DHT22;24320;56.980;24.336;2022-09-03T07:08:59;20.30;99.90
28654;DHT22;24320;56.980;24.336;2022-09-03T07:11:28;20.50;99.90
28654;DHT22;24320;56.980;24.336;2022-09-03T07:13:57;20.70;99.90
28654;DHT22;24320;56.980;24.336;2022-09-03T07:16:27;20.80;99.90
28654;DHT22;24320;56.980;24.336;2022-09-03T07:18:56;20.80;99.90
28654;DHT22;24320;56.980;24.336;2022-09-03T07:21:25;21.00;99.90
28654;DHT22;24320;56.980;24.336;2022-09-03T07:23:54;21.30;99.90
28654;DHT22;24320;56.980;24.336;2022-09-03T07:26:33;21.50;99.90
28654;DHT22;24320;56.980;24.336;2022-09-03T07:29:01;21.60;99.90
28654;DHT22;24320;56.980;24.336;2022-09-03T07:31:34;21.70;99.90
28654;DHT22;24320;56.980;24.336;2022-09-03T07:34:04;21.70;99.80
28654;DHT22;24320;56.980;24.336;2022-09-03T07:36:44;21.40;99.70
28654;DHT22;24320;56.980;24.336;2022-09-03T07:39:15;21.20;99.90
28654;DHT22;24320;56.980;24.336;2022-09-03T07:41:44;21.10;99.90
28654;DHT22;24320;56.980;24.336;2022-09-03T07:44:16;21.00;99.90
28654;DHT22;24320;56.980;24.336;2022-09-03T07:46:46;21.10;99.80
28654;DHT22;24320;56.980;24.336;2022-09-03T07:49:15;21.20;99.40
28654;DHT22;24320;56.980;24.336;2022-09-03T07:51:43;21.10;99.90
28654;DHT22;24320;56.980;24.336;2022-09-03T07:54:12;21.10;99.90
28654;DHT22;24320;56.980;24.336;2022-09-03T07:56:39;20.80;98.70
28654;DHT22;24320;56.980;24.336;2022-09-03T07:59:07;20.30;98.90
28654;DHT22;24320;56.980;24.336;2022-09-03T08:01:36;19.70;99.30
28654;DHT22;24320;56.980;24.336;2022-09-03T08:04:07;19.10;99.90
28654;DHT22;24320;56.980;24.336;2022-09-03T08:06:36;18.60;99.90
28654;DHT22;24320;56.980;24.336;2022-09-03T08:09:05;18.40;99.90
28654;DHT22;24320;56.980;24.336;2022-09-03T08:11:36;18.40;99.90
28654;DHT22;24320;56.980;24.336;2022-09-03T08:14:06;18.50;99.90
28654;DHT22;24320;56.980;24.336;2022-09-03T08:16:42;18.60;99.90
28654;DHT22;24320;56.980;24.336;2022-09-03T08:19:09;18.70;99.90
28654;DHT22;24320;56.980;24.336;2022-09-03T08:21:39;18.90;99.90
28654;DHT22;24320;56.980;24.336;2022-09-03T08:24:10;18.80;99.90
28654;DHT22;24320;56.980;24.336;2022-09-03T08:26:40;18.70;99.90
28654;DHT22;24320;56.980;24.336;2022-09-03T08:29:16;18.80;99.90
28654;DHT22;24320;56.980;24.336;2022-09-03T08:31:43;18.90;99.90
28654;DHT22;24320;56.980;24.336;2022-09-03T08:34:10;19.00;99.90
28654;DHT22;24320;56.980;24.336;2022-09-03T08:36:39;18.90;99.00
28654;DHT22;24320;56.980;24.336;2022-09-03T08:39:10;18.50;98.10
28654;DHT22;24320;56.980;24.336;2022-09-03T08:44:42;17.70;99.90
28654;DHT22;24320;56.980;24.336;2022-09-03T08:48:33;17.80;99.90
28654;DHT22;24320;56.980;24.336;2022-09-03T08:50:31;18.20;99.90
28654;DHT22;24320;56.980;24.336;2022-09-03T08:55:53;19.10;99.80
28654;DHT22;24320;56.980;24.336;2022-09-03T08:58:25;19.30;99.50
28654;DHT22;24320;56.980;24.336;2022-09-03T09:00:57;19.00;96.70
28654;DHT22;24320;56.980;24.336;2022-09-03T09:06:29;18.10;95.60
28654;DHT22;24320;56.980;24.336;2022-09-03T09:22:34;13.30;99.90
28654;DHT22;24320;56.980;24.336;2022-09-03T09:25:18;13.00;99.90
28654;DHT22;24320;56.980;24.336;2022-09-03T09:30:18;12.80;99.90
28654;DHT22;24320;56.980;24.336;2022-09-03T09:32:45;12.80;99.90
28654;DHT22;24320;56.980;24.336;2022-09-03T09:35:17;12.70;99.90
28654;DHT22;24320;56.980;24.336;2022-09-03T09:37:52;12.90;99.90
28654;DHT22;24320;56.980;24.336;2022-09-03T09:40:32;13.00;99.90
28654;DHT22;24320;56.980;24.336;2022-09-03T09:43:26;13.00;99.90
28654;DHT22;24320;56.980;24.336;2022-09-03T09:45:53;13.00;99.90
28654;DHT22;24320;56.980;24.336;2022-09-03T09:48:27;13.00;99.90
28654;DHT22;24320;56.980;24.336;2022-09-03T09:51:10;13.20;99.90
28654;DHT22;24320;56.980;24.336;2022-09-03T09:53:38;13.60;99.90
28654;DHT22;24320;56.980;24.336;2022-09-03T09:56:06;13.90;99.90
28654;DHT22;24320;56.980;24.336;2022-09-03T09:58:34;14.10;99.90
28654;DHT22;24320;56.980;24.336;2022-09-03T10:01:17;14.00;99.90
28654;DHT22;24320;56.980;24.336;2022-09-03T10:03:55;13.70;99.90
28654;DHT22;24320;56.980;24.336;2022-09-03T10:06:30;13.50;99.90
28654;DHT22;24320;56.980;24.336;2022-09-03T10:09:18;13.30;99.90
28654;DHT22;24320;56.980;24.336;2022-09-03T10:14:31;13.00;99.90
28654;DHT22;24320;56.980;24.336;2022-09-03T10:20:21;13.10;99.90
28654;DHT22;24320;56.980;24.336;2022-09-03T10:25:53;13.60;99.90
28654;DHT22;24320;56.980;24.336;2022-09-03T10:28:16;13.70;99.90
28654;DHT22;24320;56.980;24.336;2022-09-03T10:43:35;14.80;99.90
28654;DHT22;24320;56.980;24.336;2022-09-03T10:48:43;15.40;99.90
28654;DHT22;24320;56.980;24.336;2022-09-03T10:51:41;15.60;99.90
28654;DHT22;24320;56.980;24.336;2022-09-03T10:57:33;16.00;99.90
28654;DHT22;24320;56.980;24.336;2022-09-03T11:00:09;16.40;99.90
28654;DHT22;24320;56.980;24.336;2022-09-03T11:09:09;16.20;99.90
28654;DHT22;24320;56.980;24.336;2022-09-03T11:11:44;15.60;99.90
28654;DHT22;24320;56.980;24.336;2022-09-03T11:14:17;15.20;99.90
28654;DHT22;24320;56.980;24.336;2022-09-03T11:16:54;14.80;99.90
28654;DHT22;24320;56.980;24.336;2022-09-03T11:19:40;14.60;99.90
28654;DHT22;24320;56.980;24.336;2022-09-03T11:22:14;14.50;99.90
28654;DHT22;24320;56.980;24.336;2022-09-03T11:24:53;14.60;99.90
28654;DHT22;24320;56.980;24.336;2022-09-03T11:30:08;15.00;99.90
28654;DHT22;24320;56.980;24.336;2022-09-03T11:35:14;15.40;99.90
28654;DHT22;24320;56.980;24.336;2022-09-03T11:43:46;15.90;99.90
28654;DHT22;24320;56.980;24.336;2022-09-03T11:48:55;16.40;99.90
28654;DHT22;24320;56.980;24.336;2022-09-03T11:54:02;16.80;99.90
28654;DHT22;24320;56.980;24.336;2022-09-03T11:56:32;16.90;99.90
28654;DHT22;24320;56.980;24.336;2022-09-03T12:01:41;16.80;99.90
28654;DHT22;24320;56.980;24.336;2022-09-03T12:04:13;16.80;99.90
28654;DHT22;24320;56.980;24.336;2022-09-03T12:12:11;16.40;99.90
28654;DHT22;24320;56.980;24.336;2022-09-03T12:15:03;16.30;99.90
28654;DHT22;24320;56.980;24.336;2022-09-03T12:20:00;15.80;99.90
28654;DHT22;24320;56.980;24.336;2022-09-03T12:22:28;15.70;99.90
28654;DHT22;24320;56.980;24.336;2022-09-03T12:25:13;15.80;99.90
28654;DHT22;24320;56.980;24.336;2022-09-03T12:27:43;16.00;99.90
28654;DHT22;24320;56.980;24.336;2022-09-03T12:30:16;16.00;99.90
28654;DHT22;24320;56.980;24.336;2022-09-03T12:32:44;16.00;99.90
28654;DHT22;24320;56.980;24.336;2022-09-03T12:35:19;15.90;99.90
28654;DHT22;24320;56.980;24.336;2022-09-03T12:38:06;15.90;99.90
28654;DHT22;24320;56.980;24.336;2022-09-03T12:40:41;15.90;99.90
28654;DHT22;24320;56.980;24.336;2022-09-03T12:43:29;15.90;99.90
28654;DHT22;24320;56.980;24.336;2022-09-03T12:46:12;15.90;99.90
28654;DHT22;24320;56.980;24.336;2022-09-03T12:48:51;15.80;99.90
28654;DHT22;24320;56.980;24.336;2022-09-03T12:51:40;15.80;99.90
28654;DHT22;24320;56.980;24.336;2022-09-03T12:54:21;15.80;99.90
28654;DHT22;24320;56.980;24.336;2022-09-03T12:56:54;16.00;99.90
28654;DHT22;24320;56.980;24.336;2022-09-03T12:59:23;16.10;99.90
28654;DHT22;24320;56.980;24.336;2022-09-03T13:01:54;16.40;99.90
28654;DHT22;24320;56.980;24.336;2022-09-03T13:04:31;16.70;99.90
28654;DHT22;24320;56.980;24.336;2022-09-03T13:07:02;16.90;99.90
28654;DHT22;24320;56.980;24.336;2022-09-03T13:09:33;17.00;99.90
28654;DHT22;24320;56.980;24.336;2022-09-03T13:12:01;17.20;99.90
28654;DHT22;24320;56.980;24.336;2022-09-03T13:14:45;17.20;99.90
28654;DHT22;24320;56.980;24.336;2022-09-03T13:25:28;16.90;99.90
28654;DHT22;24320;56.980;24.336;2022-09-03T13:28:43;16.80;99.90
28654;DHT22;24320;56.980;24.336;2022-09-03T13:31:44;16.80;99.90
28654;DHT22;24320;56.980;24.336;2022-09-03T13:34:25;16.40;99.90
28654;DHT22;24320;56.980;24.336;2022-09-03T13:47:47;16.50;99.90
28654;DHT22;24320;56.980;24.336;2022-09-03T13:51:06;16.50;99.90
28654;DHT22;24320;56.980;24.336;2022-09-03T13:57:37;16.20;99.90
28654;DHT22;24320;56.980;24.336;2022-09-03T14:00:12;16.00;99.90
28654;DHT22;24320;56.980;24.336;2022-09-03T14:02:57;15.70;99.90
28654;DHT22;24320;56.980;24.336;2022-09-03T14:08:27;15.10;99.90
28654;DHT22;24320;56.980;24.336;2022-09-03T14:17:07;15.10;99.90
28654;DHT22;24320;56.980;24.336;2022-09-03T14:19:57;15.20;99.90
28654;DHT22;24320;56.980;24.336;2022-09-03T14:25:15;15.40;99.90
28654;DHT22;24320;56.980;24.336;2022-09-03T14:27:43;15.40;99.90
28654;DHT22;24320;56.980;24.336;2022-09-03T14:30:24;15.40;99.90
28654;DHT22;24320;56.980;24.336;2022-09-03T14:33:26;15.50;99.90
28654;DHT22;24320;56.980;24.336;2022-09-03T14:38:55;15.60;99.90
28654;DHT22;24320;56.980;24.336;2022-09-03T14:44:21;15.60;99.90
28654;DHT22;24320;56.980;24.336;2022-09-03T14:47:01;15.50;99.90
28654;DHT22;24320;56.980;24.336;2022-09-03T14:54:58;15.20;99.90
28654;DHT22;24320;56.980;24.336;2022-09-03T15:00:14;15.10;99.90
28654;DHT22;24320;56.980;24.336;2022-09-03T15:11:24;15.20;99.90
28654;DHT22;24320;56.980;24.336;2022-09-03T15:14:12;15.30;99.90
28654;DHT22;24320;56.980;24.336;2022-09-03T15:19:54;15.30;99.90
28654;DHT22;24320;56.980;24.336;2022-09-03T15:25:44;15.00;99.90
28654;DHT22;24320;56.980;24.336;2022-09-03T15:28:32;14.90;99.90
28654;DHT22;24320;56.980;24.336;2022-09-03T15:31:26;14.80;99.90
28654;DHT22;24320;56.980;24.336;2022-09-03T15:34:32;14.70;99.90
28654;DHT22;24320;56.980;24.336;2022-09-03T15:36:54;14.50;99.90
28654;DHT22;24320;56.980;24.336;2022-09-03T15:39:35;14.40;99.90
28654;DHT22;24320;56.980;24.336;2022-09-03T15:42:25;14.40;99.90
28654;DHT22;24320;56.980;24.336;2022-09-03T15:44:59;14.30;99.90
28654;DHT22;24320;56.980;24.336;2022-09-03T15:50:33;14.20;99.90
28654;DHT22;24320;56.980;24.336;2022-09-03T15:55:42;14.10;99.90
28654;DHT22;24320;56.980;24.336;2022-09-03T15:58:33;14.00;99.90
28654;DHT22;24320;56.980;24.336;2022-09-03T16:01:12;14.00;99.90
28654;DHT22;24320;56.980;24.336;2022-09-03T16:07:01;13.90;99.90
28654;DHT22;24320;56.980;24.336;2022-09-03T16:12:40;13.80;99.90
28654;DHT22;24320;56.980;24.336;2022-09-03T16:15:26;13.80;99.90
28654;DHT22;24320;56.980;24.336;2022-09-03T16:18:21;13.80;99.90
28654;DHT22;24320;56.980;24.336;2022-09-03T16:20:52;13.80;99.90
28654;DHT22;24320;56.980;24.336;2022-09-03T16:26:12;13.60;99.90
28654;DHT22;24320;56.980;24.336;2022-09-03T16:28:58;13.60;99.90
28654;DHT22;24320;56.980;24.336;2022-09-03T16:42:26;13.30;99.90
28654;DHT22;24320;56.980;24.336;2022-09-03T16:45:04;13.30;99.90
28654;DHT22;24320;56.980;24.336;2022-09-03T16:53:30;13.10;99.90
28654;DHT22;24320;56.980;24.336;2022-09-03T16:58:40;13.00;99.90
28654;DHT22;24320;56.980;24.336;2022-09-03T17:04:11;12.90;99.90
28654;DHT22;24320;56.980;24.336;2022-09-03T17:15:11;12.70;99.90
28654;DHT22;24320;56.980;24.336;2022-09-03T17:34:47;12.40;99.90
28654;DHT22;24320;56.980;24.336;2022-09-03T17:43:26;12.20;99.90
28654;DHT22;24320;56.980;24.336;2022-09-03T17:46:49;12.20;99.90
28654;DHT22;24320;56.980;24.336;2022-09-03T17:49:00;12.10;99.90
28654;DHT22;24320;56.980;24.336;2022-09-03T17:51:46;12.10;99.90
28654;DHT22;24320;56.980;24.336;2022-09-03T17:54:48;12.10;99.90
28654;DHT22;24320;56.980;24.336;2022-09-03T17:57:21;12.10;99.90
28654;DHT22;24320;56.980;24.336;2022-09-03T18:00:08;12.00;99.90
28654;DHT22;24320;56.980;24.336;2022-09-03T18:02:53;12.00;99.90
28654;DHT22;24320;56.980;24.336;2022-09-03T18:05:26;12.00;99.90
28654;DHT22;24320;56.980;24.336;2022-09-03T18:07:59;12.00;99.90
28654;DHT22;24320;56.980;24.336;2022-09-03T18:10:42;12.00;99.90
28654;DHT22;24320;56.980;24.336;2022-09-03T18:13:50;11.90;99.90
28654;DHT22;24320;56.980;24.336;2022-09-03T18:19:45;11.90;99.90
28654;DHT22;24320;56.980;24.336;2022-09-03T18:22:51;11.90;99.90
28654;DHT22;24320;56.980;24.336;2022-09-03T18:25:39;11.80;99.90
28654;DHT22;24320;56.980;24.336;2022-09-03T18:31:56;11.80;99.90
28654;DHT22;24320;56.980;24.336;2022-09-03T18:34:42;11.80;99.90
28654;DHT22;24320;56.980;24.336;2022-09-03T18:37:27;11.80;99.90
28654;DHT22;24320;56.980;24.336;2022-09-03T18:40:17;11.70;99.90
28654;DHT22;24320;56.980;24.336;2022-09-03T18:43:22;11.60;99.90
28654;DHT22;24320;56.980;24.336;2022-09-03T18:50:03;11.50;99.90
28654;DHT22;24320;56.980;24.336;2022-09-03T18:53:00;11.40;99.90
28654;DHT22;24320;56.980;24.336;2022-09-03T18:56:08;11.40;99.90
28654;DHT22;24320;56.980;24.336;2022-09-03T19:02:28;11.30;99.90
28654;DHT22;24320;56.980;24.336;2022-09-03T19:05:18;11.20;99.90
28654;DHT22;24320;56.980;24.336;2022-09-03T19:10:53;11.10;99.90
28654;DHT22;24320;56.980;24.336;2022-09-03T19:13:41;11.00;99.90
28654;DHT22;24320;56.980;24.336;2022-09-03T19:19:46;10.80;99.90
28654;DHT22;24320;56.980;24.336;2022-09-03T19:22:40;10.70;99.90
28654;DHT22;24320;56.980;24.336;2022-09-03T19:25:27;10.60;99.90
28654;DHT22;24320;56.980;24.336;2022-09-03T19:28:22;10.40;99.90
28654;DHT22;24320;56.980;24.336;2022-09-03T19:38:10;10.00;99.90
28654;DHT22;24320;56.980;24.336;2022-09-03T19:41:20;9.90;99.90
28654;DHT22;24320;56.980;24.336;2022-09-03T19:47:02;9.60;99.90
28654;DHT22;24320;56.980;24.336;2022-09-03T19:53:03;9.40;99.90
28654;DHT22;24320;56.980;24.336;2022-09-03T19:55:54;9.30;99.90
28654;DHT22;24320;56.980;24.336;2022-09-03T19:59:32;9.20;99.90
28654;DHT22;24320;56.980;24.336;2022-09-03T20:01:55;9.10;99.90
28654;DHT22;24320;56.980;24.336;2022-09-03T20:05:02;9.00;99.90
28654;DHT22;24320;56.980;24.336;2022-09-03T20:07:54;8.90;99.90
28654;DHT22;24320;56.980;24.336;2022-09-03T20:10:42;8.80;99.90
28654;DHT22;24320;56.980;24.336;2022-09-03T20:13:18;8.70;99.90
28654;DHT22;24320;56.980;24.336;2022-09-03T20:18:41;8.50;99.90
28654;DHT22;24320;56.980;24.336;2022-09-03T20:27:03;8.30;99.90
28654;DHT22;24320;56.980;24.336;2022-09-03T20:37:48;8.00;99.90
28654;DHT22;24320;56.980;24.336;2022-09-03T20:40:24;7.90;99.90
28654;DHT22;24320;56.980;24.336;2022-09-03T20:43:17;7.80;99.90
28654;DHT22;24320;56.980;24.336;2022-09-03T20:51:21;7.60;99.90
28654;DHT22;24320;56.980;24.336;2022-09-03T20:54:31;7.50;99.90
28654;DHT22;24320;56.980;24.336;2022-09-03T21:19:08;7.00;99.90
28654;DHT22;24320;56.980;24.336;2022-09-03T21:24:32;6.90;99.90
28654;DHT22;24320;56.980;24.336;2022-09-03T21:27:09;7.00;99.90
28654;DHT22;24320;56.980;24.336;2022-09-03T21:29:39;7.00;99.90
28654;DHT22;24320;56.980;24.336;2022-09-03T21:32:13;6.90;99.90
28654;DHT22;24320;56.980;24.336;2022-09-03T21:37:24;6.90;99.90
28654;DHT22;24320;56.980;24.336;2022-09-03T21:39:54;6.90;99.90
28654;DHT22;24320;56.980;24.336;2022-09-03T21:42:45;6.90;99.90
28654;DHT22;24320;56.980;24.336;2022-09-03T21:47:54;7.00;99.90
28654;DHT22;24320;56.980;24.336;2022-09-03T21:50:41;7.00;99.90
28654;DHT22;24320;56.980;24.336;2022-09-03T21:53:26;7.00;99.90
28654;DHT22;24320;56.980;24.336;2022-09-03T21:56:24;7.00;99.90
28654;DHT22;24320;56.980;24.336;2022-09-03T22:02:08;6.90;99.90
28654;DHT22;24320;56.980;24.336;2022-09-03T22:04:42;6.90;99.90
28654;DHT22;24320;56.980;24.336;2022-09-03T22:09:53;6.90;99.90
28654;DHT22;24320;56.980;24.336;2022-09-03T22:15:01;6.80;99.90
28654;DHT22;24320;56.980;24.336;2022-09-03T22:17:51;6.80;99.90
28654;DHT22;24320;56.980;24.336;2022-09-03T22:20:24;6.70;99.90
28654;DHT22;24320;56.980;24.336;2022-09-03T22:28:23;6.60;99.90
28654;DHT22;24320;56.980;24.336;2022-09-03T22:31:25;6.50;99.90
28654;DHT22;24320;56.980;24.336;2022-09-03T22:36:51;6.30;99.90
28654;DHT22;24320;56.980;24.336;2022-09-03T22:39:29;6.30;99.90